sensor_id;sensor_type;location;lat;lon;timestamp;P1;durP1;ratioP1;P2;durP2;ratioP2
45114;SDS011;30877;43.706;10.780;2022-12-10T11:14:44;11.27;;;9.27;;
45114;SDS011;30877;43.706;10.780;2022-12-10T11:17:18;33.15;;;26.25;;
45114;SDS011;30877;43.706;10.780;2022-12-10T11:19:53;10.60;;;9.50;;
45114;SDS011;30877;43.706;10.780;2022-12-10T11:22:26;9.80;;;8.52;;
45114;SDS011;30877;43.706;10.780;2022-12-10T11:24:55;8.20;;;6.82;;
45114;SDS011;30877;43.706;10.780;2022-12-10T11:27:28;7.68;;;6.85;;
45114;SDS011;30877;43.706;10.780;2022-12-10T11:30:09;7.80;;;6.38;;
45114;SDS011;30877;43.706;10.780;2022-12-10T11:32:53;6.65;;;6.00;;
45114;SDS011;30877;43.706;10.780;2022-12-10T11:35:35;7.45;;;6.75;;
45114;SDS011;30877;43.706;10.780;2022-12-10T11:38:15;9.73;;;7.15;;
45114;SDS011;30877;43.706;10.780;2022-12-10T11:40:49;7.88;;;7.15;;
45114;SDS011;30877;43.706;10.780;2022-12-10T11:43:24;9.73;;;7.82;;
45114;SDS011;30877;43.706;10.780;2022-12-10T11:46:10;8.43;;;7.35;;
45114;SDS011;30877;43.706;10.780;2022-12-10T11:48:50;8.38;;;7.47;;
45114;SDS011;30877;43.706;10.780;2022-12-10T11:51:28;8.50;;;7.15;;
45114;SDS011;30877;43.706;10.780;2022-12-10T11:54:09;8.98;;;7.22;;
45114;SDS011;30877;43.706;10.780;2022-12-10T11:56:48;11.48;;;7.95;;
45114;SDS011;30877;43.706;10.780;2022-12-10T11:59:23;8.15;;;7.32;;
45114;SDS011;30877;43.706;10.780;2022-12-10T12:02:24;8.38;;;7.57;;
45114;SDS011;30877;43.706;10.780;2022-12-10T12:08:13;10.38;;;7.63;;
45114;SDS011;30877;43.706;10.780;2022-12-10T12:11:01;8.23;;;7.43;;
45114;SDS011;30877;43.706;10.780;2022-12-10T12:13:51;9.57;;;8.00;;
45114;SDS011;30877;43.706;10.780;2022-12-10T12:16:26;8.75;;;7.82;;
45114;SDS011;30877;43.706;10.780;2022-12-10T12:18:59;8.60;;;7.78;;
45114;SDS011;30877;43.706;10.780;2022-12-10T12:21:30;8.93;;;7.97;;
45114;SDS011;30877;43.706;10.780;2022-12-10T12:23:58;9.32;;;8.18;;
45114;SDS011;30877;43.706;10.780;2022-12-10T12:26:32;9.82;;;8.02;;
45114;SDS011;30877;43.706;10.780;2022-12-10T12:29:08;9.07;;;8.13;;
45114;SDS011;30877;43.706;10.780;2022-12-10T12:31:42;10.57;;;6.97;;
45114;SDS011;30877;43.706;10.780;2022-12-10T12:34:17;8.48;;;7.32;;
45114;SDS011;30877;43.706;10.780;2022-12-10T12:36:48;7.72;;;6.95;;
45114;SDS011;30877;43.706;10.780;2022-12-10T12:39:20;9.10;;;8.20;;
45114;SDS011;30877;43.706;10.780;2022-12-10T12:42:01;9.52;;;7.60;;
45114;SDS011;30877;43.706;10.780;2022-12-10T12:44:35;6.78;;;6.00;;
45114;SDS011;30877;43.706;10.780;2022-12-10T12:47:16;6.40;;;5.28;;
45114;SDS011;30877;43.706;10.780;2022-12-10T12:49:55;5.32;;;4.82;;
45114;SDS011;30877;43.706;10.780;2022-12-10T12:52:29;7.45;;;5.53;;
45114;SDS011;30877;43.706;10.780;2022-12-10T12:55:04;5.80;;;5.20;;
45114;SDS011;30877;43.706;10.780;2022-12-10T12:57:43;5.22;;;4.53;;
45114;SDS011;30877;43.706;10.780;2022-12-10T13:00:16;5.40;;;4.68;;
45114;SDS011;30877;43.706;10.780;2022-12-10T13:02:48;7.55;;;5.93;;
45114;SDS011;30877;43.706;10.780;2022-12-10T13:05:29;7.30;;;6.15;;
45114;SDS011;30877;43.706;10.780;2022-12-10T13:08:15;6.32;;;5.50;;
45114;SDS011;30877;43.706;10.780;2022-12-10T13:10:57;6.35;;;5.70;;
45114;SDS011;30877;43.706;10.780;2022-12-10T13:13:32;8.13;;;5.60;;
45114;SDS011;30877;43.706;10.780;2022-12-10T13:19:23;6.10;;;5.50;;
45114;SDS011;30877;43.706;10.780;2022-12-10T13:21:58;5.45;;;4.85;;
45114;SDS011;30877;43.706;10.780;2022-12-10T13:27:32;7.30;;;5.70;;
45114;SDS011;30877;43.706;10.780;2022-12-10T13:30:04;9.82;;;7.60;;
45114;SDS011;30877;43.706;10.780;2022-12-10T13:32:52;7.15;;;6.45;;
45114;SDS011;30877;43.706;10.780;2022-12-10T13:35:30;7.10;;;5.93;;
45114;SDS011;30877;43.706;10.780;2022-12-10T13:38:19;7.35;;;6.55;;
45114;SDS011;30877;43.706;10.780;2022-12-10T13:40:59;6.22;;;5.20;;
45114;SDS011;30877;43.706;10.780;2022-12-10T13:43:56;6.15;;;5.13;;
45114;SDS011;30877;43.706;10.780;2022-12-10T13:46:55;3.63;;;3.25;;
45114;SDS011;30877;43.706;10.780;2022-12-10T13:49:25;4.53;;;3.05;;
45114;SDS011;30877;43.706;10.780;2022-12-10T13:51:55;3.45;;;2.92;;
45114;SDS011;30877;43.706;10.780;2022-12-10T13:57:52;5.10;;;4.60;;
45114;SDS011;30877;43.706;10.780;2022-12-10T14:00:32;6.90;;;4.75;;
45114;SDS011;30877;43.706;10.780;2022-12-10T14:03:12;5.03;;;4.47;;
45114;SDS011;30877;43.706;10.780;2022-12-10T14:06:13;4.13;;;3.72;;
45114;SDS011;30877;43.706;10.780;2022-12-10T14:08:50;3.90;;;3.33;;
45114;SDS011;30877;43.706;10.780;2022-12-10T14:11:26;5.50;;;3.88;;
45114;SDS011;30877;43.706;10.780;2022-12-10T14:14:05;4.20;;;3.80;;
45114;SDS011;30877;43.706;10.780;2022-12-10T14:16:38;6.20;;;4.80;;
45114;SDS011;30877;43.706;10.780;2022-12-10T14:19:11;13.85;;;11.43;;
45114;SDS011;30877;43.706;10.780;2022-12-10T14:21:41;10.55;;;9.18;;
45114;SDS011;30877;43.706;10.780;2022-12-10T14:24:28;6.00;;;5.38;;
45114;SDS011;30877;43.706;10.780;2022-12-10T14:27:00;5.63;;;4.63;;
45114;SDS011;30877;43.706;10.780;2022-12-10T14:29:34;5.75;;;4.75;;
45114;SDS011;30877;43.706;10.780;2022-12-10T14:32:02;14.63;;;11.48;;
45114;SDS011;30877;43.706;10.780;2022-12-10T14:34:30;7.50;;;6.57;;
45114;SDS011;30877;43.706;10.780;2022-12-10T14:37:00;6.88;;;6.15;;
45114;SDS011;30877;43.706;10.780;2022-12-10T14:39:32;6.22;;;5.63;;
45114;SDS011;30877;43.706;10.780;2022-12-10T14:42:02;6.50;;;5.00;;
45114;SDS011;30877;43.706;10.780;2022-12-10T14:44:36;6.53;;;5.50;;
45114;SDS011;30877;43.706;10.780;2022-12-10T14:47:10;7.53;;;5.78;;
45114;SDS011;30877;43.706;10.780;2022-12-10T14:49:41;6.25;;;5.10;;
45114;SDS011;30877;43.706;10.780;2022-12-10T14:52:11;7.25;;;6.43;;
45114;SDS011;30877;43.706;10.780;2022-12-10T14:54:41;6.85;;;5.90;;
45114;SDS011;30877;43.706;10.780;2022-12-10T14:57:13;9.13;;;6.75;;
45114;SDS011;30877;43.706;10.780;2022-12-10T14:59:46;8.85;;;6.47;;
45114;SDS011;30877;43.706;10.780;2022-12-10T15:02:19;8.48;;;7.18;;
45114;SDS011;30877;43.706;10.780;2022-12-10T15:04:53;9.35;;;7.43;;
45114;SDS011;30877;43.706;10.780;2022-12-10T15:07:22;7.32;;;6.50;;
45114;SDS011;30877;43.706;10.780;2022-12-10T15:09:53;8.00;;;6.53;;
45114;SDS011;30877;43.706;10.780;2022-12-10T15:12:26;7.03;;;6.10;;
45114;SDS011;30877;43.706;10.780;2022-12-10T15:15:04;7.53;;;6.43;;
45114;SDS011;30877;43.706;10.780;2022-12-10T15:17:36;7.80;;;6.47;;
45114;SDS011;30877;43.706;10.780;2022-12-10T15:20:10;7.93;;;6.70;;
45114;SDS011;30877;43.706;10.780;2022-12-10T15:22:45;8.40;;;6.70;;
45114;SDS011;30877;43.706;10.780;2022-12-10T15:25:19;10.32;;;7.90;;
45114;SDS011;30877;43.706;10.780;2022-12-10T15:27:54;10.55;;;9.43;;
45114;SDS011;30877;43.706;10.780;2022-12-10T15:30:35;9.23;;;8.32;;
45114;SDS011;30877;43.706;10.780;2022-12-10T15:33:12;10.93;;;8.88;;
45114;SDS011;30877;43.706;10.780;2022-12-10T15:35:58;14.40;;;12.57;;
45114;SDS011;30877;43.706;10.780;2022-12-10T15:38:27;12.60;;;11.30;;
45114;SDS011;30877;43.706;10.780;2022-12-10T15:40:59;15.63;;;11.65;;
45114;SDS011;30877;43.706;10.780;2022-12-10T15:44:00;13.02;;;11.60;;
45114;SDS011;30877;43.706;10.780;2022-12-10T15:46:31;13.00;;;11.40;;
45114;SDS011;30877;43.706;10.780;2022-12-10T15:49:00;13.15;;;10.90;;
45114;SDS011;30877;43.706;10.780;2022-12-10T15:51:28;16.52;;;12.05;;
45114;SDS011;30877;43.706;10.780;2022-12-10T15:53:56;14.57;;;12.07;;
45114;SDS011;30877;43.706;10.780;2022-12-10T15:56:24;28.77;;;21.98;;
45114;SDS011;30877;43.706;10.780;2022-12-10T15:58:52;61.50;;;47.55;;
45114;SDS011;30877;43.706;10.780;2022-12-10T16:01:20;79.57;;;61.38;;
45114;SDS011;30877;43.706;10.780;2022-12-10T16:03:50;107.10;;;78.97;;
45114;SDS011;30877;43.706;10.780;2022-12-10T16:06:19;74.15;;;59.08;;
45114;SDS011;30877;43.706;10.780;2022-12-10T16:08:47;23.88;;;17.92;;
45114;SDS011;30877;43.706;10.780;2022-12-10T16:11:16;79.15;;;50.92;;
45114;SDS011;30877;43.706;10.780;2022-12-10T16:13:47;37.08;;;29.38;;
45114;SDS011;30877;43.706;10.780;2022-12-10T16:16:18;27.83;;;21.80;;
45114;SDS011;30877;43.706;10.780;2022-12-10T16:18:47;15.85;;;12.20;;
45114;SDS011;30877;43.706;10.780;2022-12-10T16:21:17;62.95;;;56.53;;
45114;SDS011;30877;43.706;10.780;2022-12-10T16:23:45;10.55;;;9.25;;
45114;SDS011;30877;43.706;10.780;2022-12-10T16:26:16;21.67;;;19.13;;
45114;SDS011;30877;43.706;10.780;2022-12-10T16:28:45;28.33;;;23.35;;
45114;SDS011;30877;43.706;10.780;2022-12-10T16:31:14;17.75;;;14.98;;
45114;SDS011;30877;43.706;10.780;2022-12-10T16:33:45;19.80;;;16.17;;
45114;SDS011;30877;43.706;10.780;2022-12-10T16:36:17;18.25;;;13.55;;
45114;SDS011;30877;43.706;10.780;2022-12-10T16:38:45;18.15;;;14.45;;
45114;SDS011;30877;43.706;10.780;2022-12-10T16:41:15;16.80;;;13.90;;
45114;SDS011;30877;43.706;10.780;2022-12-10T16:43:44;16.60;;;14.38;;
45114;SDS011;30877;43.706;10.780;2022-12-10T16:46:12;17.73;;;14.80;;
45114;SDS011;30877;43.706;10.780;2022-12-10T16:48:41;25.33;;;18.75;;
45114;SDS011;30877;43.706;10.780;2022-12-10T16:51:14;28.17;;;22.95;;
45114;SDS011;30877;43.706;10.780;2022-12-10T16:53:47;69.18;;;61.70;;
45114;SDS011;30877;43.706;10.780;2022-12-10T16:56:15;32.75;;;26.77;;
45114;SDS011;30877;43.706;10.780;2022-12-10T16:58:44;15.57;;;10.40;;
45114;SDS011;30877;43.706;10.780;2022-12-10T17:01:17;14.45;;;11.88;;
45114;SDS011;30877;43.706;10.780;2022-12-10T17:03:46;21.08;;;16.88;;
45114;SDS011;30877;43.706;10.780;2022-12-10T17:06:15;17.80;;;15.27;;
45114;SDS011;30877;43.706;10.780;2022-12-10T17:08:47;18.83;;;15.60;;
45114;SDS011;30877;43.706;10.780;2022-12-10T17:11:17;17.02;;;15.23;;
45114;SDS011;30877;43.706;10.780;2022-12-10T17:14:06;15.50;;;13.25;;
45114;SDS011;30877;43.706;10.780;2022-12-10T17:16:41;14.63;;;12.02;;
45114;SDS011;30877;43.706;10.780;2022-12-10T17:19:10;13.85;;;12.48;;
45114;SDS011;30877;43.706;10.780;2022-12-10T17:21:40;15.77;;;13.27;;
45114;SDS011;30877;43.706;10.780;2022-12-10T17:24:08;15.95;;;12.43;;
45114;SDS011;30877;43.706;10.780;2022-12-10T17:26:38;13.15;;;10.93;;
45114;SDS011;30877;43.706;10.780;2022-12-10T17:29:12;13.35;;;10.52;;
45114;SDS011;30877;43.706;10.780;2022-12-10T17:31:44;19.58;;;14.00;;
45114;SDS011;30877;43.706;10.780;2022-12-10T17:34:13;15.13;;;13.10;;
45114;SDS011;30877;43.706;10.780;2022-12-10T17:36:44;20.25;;;16.02;;
45114;SDS011;30877;43.706;10.780;2022-12-10T17:39:12;26.02;;;22.70;;
45114;SDS011;30877;43.706;10.780;2022-12-10T17:41:48;22.27;;;19.58;;
45114;SDS011;30877;43.706;10.780;2022-12-10T17:44:17;18.70;;;15.57;;
45114;SDS011;30877;43.706;10.780;2022-12-10T17:46:49;17.30;;;13.13;;
45114;SDS011;30877;43.706;10.780;2022-12-10T17:49:19;17.17;;;14.27;;
45114;SDS011;30877;43.706;10.780;2022-12-10T17:51:49;16.88;;;14.27;;
45114;SDS011;30877;43.706;10.780;2022-12-10T17:54:18;14.07;;;11.43;;
45114;SDS011;30877;43.706;10.780;2022-12-10T17:56:46;14.48;;;11.18;;
45114;SDS011;30877;43.706;10.780;2022-12-10T17:59:16;10.20;;;8.43;;
45114;SDS011;30877;43.706;10.780;2022-12-10T18:01:44;15.15;;;10.80;;
45114;SDS011;30877;43.706;10.780;2022-12-10T18:04:15;11.57;;;9.63;;
45114;SDS011;30877;43.706;10.780;2022-12-10T18:06:44;15.48;;;12.98;;
45114;SDS011;30877;43.706;10.780;2022-12-10T18:09:15;11.30;;;7.90;;
45114;SDS011;30877;43.706;10.780;2022-12-10T18:11:43;15.27;;;10.30;;
45114;SDS011;30877;43.706;10.780;2022-12-10T18:14:12;12.57;;;9.93;;
45114;SDS011;30877;43.706;10.780;2022-12-10T18:16:41;18.33;;;10.65;;
45114;SDS011;30877;43.706;10.780;2022-12-10T18:19:11;11.50;;;8.90;;
45114;SDS011;30877;43.706;10.780;2022-12-10T18:21:41;15.25;;;11.25;;
45114;SDS011;30877;43.706;10.780;2022-12-10T18:24:10;14.07;;;9.20;;
45114;SDS011;30877;43.706;10.780;2022-12-10T18:26:40;20.48;;;14.45;;
45114;SDS011;30877;43.706;10.780;2022-12-10T18:29:10;17.85;;;12.02;;
45114;SDS011;30877;43.706;10.780;2022-12-10T18:31:42;14.38;;;11.55;;
45114;SDS011;30877;43.706;10.780;2022-12-10T18:34:12;13.93;;;11.90;;
45114;SDS011;30877;43.706;10.780;2022-12-10T18:36:44;14.32;;;11.80;;
45114;SDS011;30877;43.706;10.780;2022-12-10T18:39:15;12.35;;;10.55;;
45114;SDS011;30877;43.706;10.780;2022-12-10T18:41:46;15.55;;;12.88;;
45114;SDS011;30877;43.706;10.780;2022-12-10T18:44:16;16.85;;;14.00;;
45114;SDS011;30877;43.706;10.780;2022-12-10T18:46:48;19.83;;;15.15;;
45114;SDS011;30877;43.706;10.780;2022-12-10T18:49:17;20.70;;;14.57;;
45114;SDS011;30877;43.706;10.780;2022-12-10T18:51:46;18.40;;;13.88;;
45114;SDS011;30877;43.706;10.780;2022-12-10T18:54:14;23.98;;;20.67;;
45114;SDS011;30877;43.706;10.780;2022-12-10T18:56:42;17.40;;;12.70;;
45114;SDS011;30877;43.706;10.780;2022-12-10T18:59:25;9.77;;;6.90;;
45114;SDS011;30877;43.706;10.780;2022-12-10T19:01:53;8.80;;;6.53;;
45114;SDS011;30877;43.706;10.780;2022-12-10T19:04:21;8.63;;;6.13;;
45114;SDS011;30877;43.706;10.780;2022-12-10T19:06:49;12.43;;;6.45;;
45114;SDS011;30877;43.706;10.780;2022-12-10T19:09:18;8.32;;;6.35;;
45114;SDS011;30877;43.706;10.780;2022-12-10T19:11:46;7.75;;;6.65;;
45114;SDS011;30877;43.706;10.780;2022-12-10T19:14:18;10.27;;;7.25;;
45114;SDS011;30877;43.706;10.780;2022-12-10T19:16:49;8.40;;;6.97;;
45114;SDS011;30877;43.706;10.780;2022-12-10T19:19:18;8.10;;;6.60;;
45114;SDS011;30877;43.706;10.780;2022-12-10T19:21:46;8.80;;;5.93;;
45114;SDS011;30877;43.706;10.780;2022-12-10T19:24:14;9.27;;;5.55;;
45114;SDS011;30877;43.706;10.780;2022-12-10T19:26:43;6.85;;;5.30;;
45114;SDS011;30877;43.706;10.780;2022-12-10T19:29:12;9.88;;;6.03;;
45114;SDS011;30877;43.706;10.780;2022-12-10T19:31:42;7.38;;;5.90;;
45114;SDS011;30877;43.706;10.780;2022-12-10T19:34:16;7.55;;;5.80;;
45114;SDS011;30877;43.706;10.780;2022-12-10T19:36:46;8.93;;;5.97;;
45114;SDS011;30877;43.706;10.780;2022-12-10T19:39:16;9.10;;;6.07;;
45114;SDS011;30877;43.706;10.780;2022-12-10T19:41:50;8.82;;;6.32;;
45114;SDS011;30877;43.706;10.780;2022-12-10T19:44:19;9.82;;;6.53;;
45114;SDS011;30877;43.706;10.780;2022-12-10T19:46:47;13.40;;;6.60;;
45114;SDS011;30877;43.706;10.780;2022-12-10T19:49:18;7.47;;;5.97;;
45114;SDS011;30877;43.706;10.780;2022-12-10T19:51:47;14.20;;;5.95;;
45114;SDS011;30877;43.706;10.780;2022-12-10T19:54:15;6.72;;;5.20;;
45114;SDS011;30877;43.706;10.780;2022-12-10T19:56:44;6.55;;;5.00;;
45114;SDS011;30877;43.706;10.780;2022-12-10T19:59:13;10.23;;;4.90;;
45114;SDS011;30877;43.706;10.780;2022-12-10T20:01:43;10.32;;;4.95;;
45114;SDS011;30877;43.706;10.780;2022-12-10T20:04:13;7.35;;;4.68;;
45114;SDS011;30877;43.706;10.780;2022-12-10T20:06:43;6.97;;;4.70;;
45114;SDS011;30877;43.706;10.780;2022-12-10T20:09:15;10.30;;;6.00;;
45114;SDS011;30877;43.706;10.780;2022-12-10T20:11:46;9.50;;;5.60;;
45114;SDS011;30877;43.706;10.780;2022-12-10T20:14:14;7.65;;;4.13;;
45114;SDS011;30877;43.706;10.780;2022-12-10T20:16:43;7.03;;;3.30;;
45114;SDS011;30877;43.706;10.780;2022-12-10T20:19:13;6.97;;;3.80;;
45114;SDS011;30877;43.706;10.780;2022-12-10T20:21:44;5.57;;;3.58;;
45114;SDS011;30877;43.706;10.780;2022-12-10T20:24:13;5.03;;;3.70;;
45114;SDS011;30877;43.706;10.780;2022-12-10T20:26:43;6.82;;;3.75;;
45114;SDS011;30877;43.706;10.780;2022-12-10T20:29:14;4.95;;;3.03;;
45114;SDS011;30877;43.706;10.780;2022-12-10T20:31:45;5.32;;;2.70;;
45114;SDS011;30877;43.706;10.780;2022-12-10T20:34:13;3.55;;;2.22;;
45114;SDS011;30877;43.706;10.780;2022-12-10T20:36:42;4.05;;;2.00;;
45114;SDS011;30877;43.706;10.780;2022-12-10T20:39:14;5.28;;;2.58;;
45114;SDS011;30877;43.706;10.780;2022-12-10T20:41:45;5.13;;;2.35;;
45114;SDS011;30877;43.706;10.780;2022-12-10T20:44:13;3.15;;;2.15;;
45114;SDS011;30877;43.706;10.780;2022-12-10T20:46:42;3.42;;;2.30;;
45114;SDS011;30877;43.706;10.780;2022-12-10T20:49:11;4.32;;;2.13;;
45114;SDS011;30877;43.706;10.780;2022-12-10T20:51:40;4.30;;;1.90;;
45114;SDS011;30877;43.706;10.780;2022-12-10T20:54:10;5.00;;;2.30;;
45114;SDS011;30877;43.706;10.780;2022-12-10T20:56:39;2.65;;;1.70;;
45114;SDS011;30877;43.706;10.780;2022-12-10T20:59:09;3.70;;;1.70;;
45114;SDS011;30877;43.706;10.780;2022-12-10T21:01:39;4.65;;;1.75;;
45114;SDS011;30877;43.706;10.780;2022-12-10T21:04:07;3.53;;;1.60;;
45114;SDS011;30877;43.706;10.780;2022-12-10T21:06:36;3.85;;;1.70;;
45114;SDS011;30877;43.706;10.780;2022-12-10T21:09:05;3.67;;;2.05;;
45114;SDS011;30877;43.706;10.780;2022-12-10T21:11:35;3.13;;;2.40;;
45114;SDS011;30877;43.706;10.780;2022-12-10T21:14:03;3.55;;;1.95;;
45114;SDS011;30877;43.706;10.780;2022-12-10T21:16:44;4.18;;;1.48;;
45114;SDS011;30877;43.706;10.780;2022-12-10T21:19:12;3.92;;;1.30;;
45114;SDS011;30877;43.706;10.780;2022-12-10T21:21:41;3.90;;;1.50;;
45114;SDS011;30877;43.706;10.780;2022-12-10T21:24:09;3.25;;;1.63;;
45114;SDS011;30877;43.706;10.780;2022-12-10T21:26:39;5.72;;;1.25;;
45114;SDS011;30877;43.706;10.780;2022-12-10T21:29:07;4.35;;;1.60;;
45114;SDS011;30877;43.706;10.780;2022-12-10T21:31:35;3.03;;;1.17;;
45114;SDS011;30877;43.706;10.780;2022-12-10T21:34:03;4.72;;;1.63;;
45114;SDS011;30877;43.706;10.780;2022-12-10T21:36:32;4.60;;;1.70;;
45114;SDS011;30877;43.706;10.780;2022-12-10T21:39:00;3.95;;;1.35;;
45114;SDS011;30877;43.706;10.780;2022-12-10T21:41:31;2.95;;;1.20;;
45114;SDS011;30877;43.706;10.780;2022-12-10T21:44:19;4.05;;;1.63;;
45114;SDS011;30877;43.706;10.780;2022-12-10T21:46:47;4.43;;;1.77;;
45114;SDS011;30877;43.706;10.780;2022-12-10T21:49:16;4.60;;;1.98;;
45114;SDS011;30877;43.706;10.780;2022-12-10T21:51:44;6.18;;;1.77;;
45114;SDS011;30877;43.706;10.780;2022-12-10T21:54:12;4.63;;;1.70;;
45114;SDS011;30877;43.706;10.780;2022-12-10T21:56:40;3.75;;;1.80;;
45114;SDS011;30877;43.706;10.780;2022-12-10T21:59:09;2.78;;;1.35;;
45114;SDS011;30877;43.706;10.780;2022-12-10T22:01:39;3.00;;;1.70;;
45114;SDS011;30877;43.706;10.780;2022-12-10T22:04:07;2.63;;;1.42;;
45114;SDS011;30877;43.706;10.780;2022-12-10T22:06:41;1.88;;;1.25;;
45114;SDS011;30877;43.706;10.780;2022-12-10T22:09:10;5.95;;;2.38;;
45114;SDS011;30877;43.706;10.780;2022-12-10T22:11:40;2.35;;;1.15;;
45114;SDS011;30877;43.706;10.780;2022-12-10T22:14:08;3.53;;;1.45;;
45114;SDS011;30877;43.706;10.780;2022-12-10T22:16:42;4.82;;;1.50;;
45114;SDS011;30877;43.706;10.780;2022-12-10T22:19:14;2.47;;;1.05;;
45114;SDS011;30877;43.706;10.780;2022-12-10T22:21:43;2.53;;;1.23;;
45114;SDS011;30877;43.706;10.780;2022-12-10T22:24:13;4.75;;;2.40;;
45114;SDS011;30877;43.706;10.780;2022-12-10T22:26:41;5.95;;;1.60;;
45114;SDS011;30877;43.706;10.780;2022-12-10T22:29:09;3.92;;;1.50;;
45114;SDS011;30877;43.706;10.780;2022-12-10T22:31:37;4.43;;;2.33;;
45114;SDS011;30877;43.706;10.780;2022-12-10T22:34:07;4.53;;;1.92;;
45114;SDS011;30877;43.706;10.780;2022-12-10T22:36:35;3.75;;;2.00;;
45114;SDS011;30877;43.706;10.780;2022-12-10T22:39:04;4.78;;;2.38;;
45114;SDS011;30877;43.706;10.780;2022-12-10T22:41:36;5.38;;;2.67;;
45114;SDS011;30877;43.706;10.780;2022-12-10T22:44:04;5.75;;;3.00;;
45114;SDS011;30877;43.706;10.780;2022-12-10T22:46:32;5.35;;;2.83;;
45114;SDS011;30877;43.706;10.780;2022-12-10T22:49:00;6.03;;;3.17;;
45114;SDS011;30877;43.706;10.780;2022-12-10T22:51:31;4.97;;;2.63;;
45114;SDS011;30877;43.706;10.780;2022-12-10T22:54:02;5.70;;;2.95;;
45114;SDS011;30877;43.706;10.780;2022-12-10T22:56:30;5.28;;;2.50;;
45114;SDS011;30877;43.706;10.780;2022-12-10T22:58:59;6.35;;;2.30;;
45114;SDS011;30877;43.706;10.780;2022-12-10T23:01:27;5.88;;;2.28;;
45114;SDS011;30877;43.706;10.780;2022-12-10T23:03:56;4.28;;;2.38;;
45114;SDS011;30877;43.706;10.780;2022-12-10T23:06:24;4.93;;;2.20;;
45114;SDS011;30877;43.706;10.780;2022-12-10T23:08:54;5.45;;;2.40;;
45114;SDS011;30877;43.706;10.780;2022-12-10T23:11:22;5.13;;;2.28;;
45114;SDS011;30877;43.706;10.780;2022-12-10T23:13:50;3.85;;;2.30;;
45114;SDS011;30877;43.706;10.780;2022-12-10T23:16:20;3.90;;;2.28;;
45114;SDS011;30877;43.706;10.780;2022-12-10T23:18:48;5.25;;;2.50;;
45114;SDS011;30877;43.706;10.780;2022-12-10T23:21:17;3.50;;;2.20;;
45114;SDS011;30877;43.706;10.780;2022-12-10T23:23:47;5.93;;;3.47;;
45114;SDS011;30877;43.706;10.780;2022-12-10T23:26:17;5.88;;;3.38;;
45114;SDS011;30877;43.706;10.780;2022-12-10T23:28:46;8.20;;;5.00;;
45114;SDS011;30877;43.706;10.780;2022-12-10T23:31:15;10.25;;;5.70;;
45114;SDS011;30877;43.706;10.780;2022-12-10T23:33:44;8.73;;;5.68;;
45114;SDS011;30877;43.706;10.780;2022-12-10T23:36:12;10.07;;;5.55;;
45114;SDS011;30877;43.706;10.780;2022-12-10T23:38:42;7.95;;;5.57;;
45114;SDS011;30877;43.706;10.780;2022-12-10T23:41:10;5.78;;;4.25;;
45114;SDS011;30877;43.706;10.780;2022-12-10T23:43:40;10.50;;;4.40;;
45114;SDS011;30877;43.706;10.780;2022-12-10T23:46:08;7.20;;;4.22;;
45114;SDS011;30877;43.706;10.780;2022-12-10T23:48:36;6.80;;;4.30;;
45114;SDS011;30877;43.706;10.780;2022-12-10T23:51:06;7.15;;;4.20;;
45114;SDS011;30877;43.706;10.780;2022-12-10T23:53:37;5.85;;;4.07;;
45114;SDS011;30877;43.706;10.780;2022-12-10T23:56:13;8.07;;;4.13;;
45114;SDS011;30877;43.706;10.780;2022-12-10T23:58:44;4.53;;;3.10;;
